Search for the current weather situation

Metar

Metar
TNCC 231300Z AUTO 10014KT 9999 NCD 29/23 Q1014
Decoded Metar

TAF

TAF
TNCC 231300Z AUTO 10014KT 9999 NCD 29/23 Q1014
Decoded TAF
Top